sensor_id;sensor_type;location;lat;lon;timestamp;pressure;altitude;pressure_sealevel;temperature;humidity
73280;BME280;61511;49.286;9.700;2022-07-12T00:00:01;97951.81;;;15.20;77.65
73280;BME280;61511;49.286;9.700;2022-07-12T00:02:30;97951.38;;;15.21;77.36
73280;BME280;61511;49.286;9.700;2022-07-12T00:04:58;97955.06;;;15.18;77.29
73280;BME280;61511;49.286;9.700;2022-07-12T00:07:26;97957.53;;;15.16;77.91
73280;BME280;61511;49.286;9.700;2022-07-12T00:09:54;97958.16;;;15.20;77.36
73280;BME280;61511;49.286;9.700;2022-07-12T00:12:23;97955.84;;;15.19;77.86
73280;BME280;61511;49.286;9.700;2022-07-12T00:14:50;97959.53;;;15.16;77.93
73280;BME280;61511;49.286;9.700;2022-07-12T00:17:18;97957.66;;;15.13;78.06
73280;BME280;61511;49.286;9.700;2022-07-12T00:19:48;97962.56;;;15.09;77.52
73280;BME280;61511;49.286;9.700;2022-07-12T00:22:16;97968.72;;;15.04;77.80
73280;BME280;61511;49.286;9.700;2022-07-12T00:24:44;97965.63;;;15.02;78.17
73280;BME280;61511;49.286;9.700;2022-07-12T00:27:12;97960.34;;;14.94;78.84
73280;BME280;61511;49.286;9.700;2022-07-12T00:29:40;97968.34;;;14.92;79.01
73280;BME280;61511;49.286;9.700;2022-07-12T00:32:08;97964.34;;;14.93;79.07
73280;BME280;61511;49.286;9.700;2022-07-12T00:34:36;97960.13;;;14.89;78.43
73280;BME280;61511;49.286;9.700;2022-07-12T00:37:06;97962.75;;;14.83;78.68
73280;BME280;61511;49.286;9.700;2022-07-12T00:39:34;97957.75;;;14.78;79.17
73280;BME280;61511;49.286;9.700;2022-07-12T00:42:02;97960.34;;;14.73;79.49
73280;BME280;61511;49.286;9.700;2022-07-12T00:44:30;97964.06;;;14.79;79.19
73280;BME280;61511;49.286;9.700;2022-07-12T00:47:01;97951.28;;;14.81;79.63
73280;BME280;61511;49.286;9.700;2022-07-12T00:49:30;97953.31;;;14.81;79.42
73280;BME280;61511;49.286;9.700;2022-07-12T00:51:58;97956.09;;;14.81;79.07
73280;BME280;61511;49.286;9.700;2022-07-12T00:54:28;97945.59;;;14.85;79.18
73280;BME280;61511;49.286;9.700;2022-07-12T00:56:56;97947.22;;;14.73;79.71
73280;BME280;61511;49.286;9.700;2022-07-12T00:59:24;97938.22;;;14.69;79.50
73280;BME280;61511;49.286;9.700;2022-07-12T01:01:52;97947.03;;;14.68;79.95
73280;BME280;61511;49.286;9.700;2022-07-12T01:04:21;97944.72;;;14.66;79.99
73280;BME280;61511;49.286;9.700;2022-07-12T01:06:50;97946.38;;;14.64;79.80
73280;BME280;61511;49.286;9.700;2022-07-12T01:09:18;97937.59;;;14.65;79.57
73280;BME280;61511;49.286;9.700;2022-07-12T01:11:47;97940.03;;;14.63;79.82
73280;BME280;61511;49.286;9.700;2022-07-12T01:14:16;97944.03;;;14.62;80.06
73280;BME280;61511;49.286;9.700;2022-07-12T01:16:44;97949.09;;;14.55;79.96
73280;BME280;61511;49.286;9.700;2022-07-12T01:19:13;97945.03;;;14.47;80.15
73280;BME280;61511;49.286;9.700;2022-07-12T01:21:47;97953.03;;;14.45;80.56
73280;BME280;61511;49.286;9.700;2022-07-12T01:24:18;97946.06;;;14.40;80.58
73280;BME280;61511;49.286;9.700;2022-07-12T01:26:46;97950.50;;;14.38;80.78
73280;BME280;61511;49.286;9.700;2022-07-12T01:29:15;97951.19;;;14.29;80.61
73280;BME280;61511;49.286;9.700;2022-07-12T01:31:43;97941.41;;;14.24;80.61
73280;BME280;61511;49.286;9.700;2022-07-12T01:34:11;97941.00;;;14.13;80.79
73280;BME280;61511;49.286;9.700;2022-07-12T01:36:41;97938.59;;;14.03;81.03
73280;BME280;61511;49.286;9.700;2022-07-12T01:39:10;97943.16;;;13.97;81.72
73280;BME280;61511;49.286;9.700;2022-07-12T01:41:39;97945.72;;;13.91;81.10
73280;BME280;61511;49.286;9.700;2022-07-12T01:44:07;97953.06;;;13.85;81.73
73280;BME280;61511;49.286;9.700;2022-07-12T01:46:37;97948.88;;;13.81;81.84
73280;BME280;61511;49.286;9.700;2022-07-12T01:49:05;97955.75;;;13.76;82.00
73280;BME280;61511;49.286;9.700;2022-07-12T01:51:33;97962.97;;;13.74;82.10
73280;BME280;61511;49.286;9.700;2022-07-12T01:54:01;97956.09;;;13.65;82.20
73280;BME280;61511;49.286;9.700;2022-07-12T01:56:29;97961.31;;;13.63;82.12
73280;BME280;61511;49.286;9.700;2022-07-12T01:58:59;97953.00;;;13.63;81.84
73280;BME280;61511;49.286;9.700;2022-07-12T02:01:28;97951.22;;;13.57;82.57
73280;BME280;61511;49.286;9.700;2022-07-12T02:03:56;97953.78;;;13.51;82.81
73280;BME280;61511;49.286;9.700;2022-07-12T02:06:29;97950.03;;;13.45;82.91
73280;BME280;61511;49.286;9.700;2022-07-12T02:08:57;97948.78;;;13.46;82.95
73280;BME280;61511;49.286;9.700;2022-07-12T02:11:25;97943.69;;;13.45;82.82
73280;BME280;61511;49.286;9.700;2022-07-12T02:13:53;97943.69;;;13.45;82.96
73280;BME280;61511;49.286;9.700;2022-07-12T02:16:23;97950.13;;;13.42;82.71
73280;BME280;61511;49.286;9.700;2022-07-12T02:18:51;97942.34;;;13.37;82.90
73280;BME280;61511;49.286;9.700;2022-07-12T02:21:19;97947.69;;;13.31;83.14
73280;BME280;61511;49.286;9.700;2022-07-12T02:23:47;97945.00;;;13.28;83.26
73280;BME280;61511;49.286;9.700;2022-07-12T02:26:15;97942.03;;;13.22;83.45
73280;BME280;61511;49.286;9.700;2022-07-12T02:28:43;97942.03;;;13.22;83.46
73280;BME280;61511;49.286;9.700;2022-07-12T02:31:11;97944.91;;;13.19;83.67
73280;BME280;61511;49.286;9.700;2022-07-12T02:33:41;97941.81;;;13.17;83.30
73280;BME280;61511;49.286;9.700;2022-07-12T02:36:09;97946.69;;;13.13;83.62
73280;BME280;61511;49.286;9.700;2022-07-12T02:38:37;97950.56;;;13.15;83.90
73280;BME280;61511;49.286;9.700;2022-07-12T02:41:05;97942.13;;;13.06;84.79
73280;BME280;61511;49.286;9.700;2022-07-12T02:43:33;97943.00;;;13.03;84.34
73280;BME280;61511;49.286;9.700;2022-07-12T02:46:04;97950.97;;;13.01;84.47
73280;BME280;61511;49.286;9.700;2022-07-12T02:48:33;97943.41;;;13.02;84.42
73280;BME280;61511;49.286;9.700;2022-07-12T02:51:04;97943.41;;;13.02;84.40
73280;BME280;61511;49.286;9.700;2022-07-12T02:53:33;97944.31;;;12.98;83.96
73280;BME280;61511;49.286;9.700;2022-07-12T02:56:07;97946.06;;;12.92;83.96
73280;BME280;61511;49.286;9.700;2022-07-12T02:58:36;97950.81;;;12.92;84.24
73280;BME280;61511;49.286;9.700;2022-07-12T03:01:04;97936.53;;;12.93;84.12
73280;BME280;61511;49.286;9.700;2022-07-12T03:03:32;97937.88;;;12.89;84.21
73280;BME280;61511;49.286;9.700;2022-07-12T03:06:00;97945.72;;;12.90;83.94
73280;BME280;61511;49.286;9.700;2022-07-12T03:08:29;97946.97;;;12.89;84.02
73280;BME280;61511;49.286;9.700;2022-07-12T03:10:57;97950.28;;;12.84;84.28
73280;BME280;61511;49.286;9.700;2022-07-12T03:13:25;97955.66;;;12.75;84.16
73280;BME280;61511;49.286;9.700;2022-07-12T03:15:53;97947.56;;;12.68;84.59
73280;BME280;61511;49.286;9.700;2022-07-12T03:18:21;97955.97;;;12.65;84.86
73280;BME280;61511;49.286;9.700;2022-07-12T03:20:49;97952.97;;;12.59;85.22
73280;BME280;61511;49.286;9.700;2022-07-12T03:23:17;97957.72;;;12.59;85.08
73280;BME280;61511;49.286;9.700;2022-07-12T03:25:47;97958.94;;;12.58;84.85
73280;BME280;61511;49.286;9.700;2022-07-12T03:28:15;97954.94;;;12.59;84.95
73280;BME280;61511;49.286;9.700;2022-07-12T03:30:43;97964.75;;;12.63;84.96
73280;BME280;61511;49.286;9.700;2022-07-12T03:33:11;97963.84;;;12.66;84.39
73280;BME280;61511;49.286;9.700;2022-07-12T03:35:39;97965.69;;;12.57;85.29
73280;BME280;61511;49.286;9.700;2022-07-12T03:38:07;97956.53;;;12.60;85.15
73280;BME280;61511;49.286;9.700;2022-07-12T03:40:35;97953.50;;;12.54;85.66
73280;BME280;61511;49.286;9.700;2022-07-12T03:43:04;97960.28;;;12.53;86.31
73280;BME280;61511;49.286;9.700;2022-07-12T03:45:32;97959.50;;;12.53;86.47
73280;BME280;61511;49.286;9.700;2022-07-12T03:48:01;97962.19;;;12.56;86.19
73280;BME280;61511;49.286;9.700;2022-07-12T03:50:29;97960.59;;;12.55;86.07
73280;BME280;61511;49.286;9.700;2022-07-12T03:52:57;97968.13;;;12.55;86.08
73280;BME280;61511;49.286;9.700;2022-07-12T03:55:25;97963.03;;;12.53;86.28
73280;BME280;61511;49.286;9.700;2022-07-12T03:57:53;97963.38;;;12.55;86.29
73280;BME280;61511;49.286;9.700;2022-07-12T04:00:22;97968.13;;;12.55;86.30
73280;BME280;61511;49.286;9.700;2022-07-12T04:02:50;97967.00;;;12.52;86.63
73280;BME280;61511;49.286;9.700;2022-07-12T04:05:22;97971.25;;;12.57;86.52
73280;BME280;61511;49.286;9.700;2022-07-12T04:07:53;97972.47;;;12.56;86.07
73280;BME280;61511;49.286;9.700;2022-07-12T04:10:21;97977.91;;;12.59;86.34
73280;BME280;61511;49.286;9.700;2022-07-12T04:12:49;97977.03;;;12.62;86.60
73280;BME280;61511;49.286;9.700;2022-07-12T04:15:17;97986.13;;;12.63;86.43
73280;BME280;61511;49.286;9.700;2022-07-12T04:17:47;97983.34;;;12.63;86.61
73280;BME280;61511;49.286;9.700;2022-07-12T04:20:15;97985.53;;;12.55;86.33
73280;BME280;61511;49.286;9.700;2022-07-12T04:22:43;97987.50;;;12.55;86.37
73280;BME280;61511;49.286;9.700;2022-07-12T04:25:11;97992.63;;;12.56;86.39
73280;BME280;61511;49.286;9.700;2022-07-12T04:27:39;97991.41;;;12.57;86.82
73280;BME280;61511;49.286;9.700;2022-07-12T04:30:08;97998.75;;;12.64;86.65
73280;BME280;61511;49.286;9.700;2022-07-12T04:32:36;98001.41;;;12.67;85.98
73280;BME280;61511;49.286;9.700;2022-07-12T04:35:07;97994.31;;;12.66;86.29
73280;BME280;61511;49.286;9.700;2022-07-12T04:37:35;98007.22;;;12.73;86.26
73280;BME280;61511;49.286;9.700;2022-07-12T04:40:03;98006.66;;;12.78;86.49
73280;BME280;61511;49.286;9.700;2022-07-12T04:42:31;98006.91;;;12.83;86.41
73280;BME280;61511;49.286;9.700;2022-07-12T04:44:59;97998.13;;;12.85;86.68
73280;BME280;61511;49.286;9.700;2022-07-12T04:47:27;98000.03;;;12.88;86.51
73280;BME280;61511;49.286;9.700;2022-07-12T04:49:55;97992.84;;;12.90;86.83
73280;BME280;61511;49.286;9.700;2022-07-12T04:52:25;97998.50;;;12.99;86.72
73280;BME280;61511;49.286;9.700;2022-07-12T04:54:53;98000.69;;;13.08;86.79
73280;BME280;61511;49.286;9.700;2022-07-12T04:57:21;97998.91;;;13.14;86.78
73280;BME280;61511;49.286;9.700;2022-07-12T04:59:49;97997.03;;;13.24;86.97
73280;BME280;61511;49.286;9.700;2022-07-12T05:02:17;98001.59;;;13.30;86.97
73280;BME280;61511;49.286;9.700;2022-07-12T05:04:44;98009.69;;;13.37;86.93
73280;BME280;61511;49.286;9.700;2022-07-12T05:07:13;97996.50;;;13.41;86.44
73280;BME280;61511;49.286;9.700;2022-07-12T05:09:42;97993.84;;;13.50;85.88
73280;BME280;61511;49.286;9.700;2022-07-12T05:12:10;97997.59;;;13.56;85.50
73280;BME280;61511;49.286;9.700;2022-07-12T05:14:38;97995.38;;;13.64;85.85
73280;BME280;61511;49.286;9.700;2022-07-12T05:17:06;98001.59;;;13.81;85.62
73280;BME280;61511;49.286;9.700;2022-07-12T05:19:34;98001.38;;;13.88;85.37
73280;BME280;61511;49.286;9.700;2022-07-12T05:22:03;98001.03;;;13.98;85.29
73280;BME280;61511;49.286;9.700;2022-07-12T05:24:31;98013.31;;;14.10;84.83
73280;BME280;61511;49.286;9.700;2022-07-12T05:27:00;98006.75;;;14.16;84.59
73280;BME280;61511;49.286;9.700;2022-07-12T05:29:28;98014.19;;;14.32;84.41
73280;BME280;61511;49.286;9.700;2022-07-12T05:31:56;98016.72;;;14.39;84.27
73280;BME280;61511;49.286;9.700;2022-07-12T05:34:25;98015.56;;;14.49;84.53
73280;BME280;61511;49.286;9.700;2022-07-12T05:36:53;98023.88;;;14.62;84.46
73280;BME280;61511;49.286;9.700;2022-07-12T05:39:20;98023.47;;;14.72;83.96
73280;BME280;61511;49.286;9.700;2022-07-12T05:41:49;98027.00;;;14.85;83.65
73280;BME280;61511;49.286;9.700;2022-07-12T05:44:18;98025.38;;;14.97;82.87
73280;BME280;61511;49.286;9.700;2022-07-12T05:46:46;98027.00;;;15.07;82.60
73280;BME280;61511;49.286;9.700;2022-07-12T05:49:14;98024.72;;;15.15;81.69
73280;BME280;61511;49.286;9.700;2022-07-12T05:51:42;98032.53;;;15.29;80.69
73280;BME280;61511;49.286;9.700;2022-07-12T05:54:28;98040.22;;;15.46;79.86
73280;BME280;61511;49.286;9.700;2022-07-12T05:56:56;98036.75;;;15.64;79.28
73280;BME280;61511;49.286;9.700;2022-07-12T05:59:25;98039.16;;;15.84;79.47
73280;BME280;61511;49.286;9.700;2022-07-12T06:01:55;98038.00;;;16.03;77.92
73280;BME280;61511;49.286;9.700;2022-07-12T06:04:23;98041.75;;;16.18;77.54
73280;BME280;61511;49.286;9.700;2022-07-12T06:06:51;98039.16;;;16.32;76.72
73280;BME280;61511;49.286;9.700;2022-07-12T06:09:19;98045.66;;;16.48;76.39
73280;BME280;61511;49.286;9.700;2022-07-12T06:11:47;98046.31;;;16.52;75.70
73280;BME280;61511;49.286;9.700;2022-07-12T06:14:15;98047.56;;;16.69;74.55
73280;BME280;61511;49.286;9.700;2022-07-12T06:16:44;98054.41;;;16.77;74.23
73280;BME280;61511;49.286;9.700;2022-07-12T06:19:12;98054.25;;;16.89;75.51
73280;BME280;61511;49.286;9.700;2022-07-12T06:21:40;98057.81;;;16.99;73.41
73280;BME280;61511;49.286;9.700;2022-07-12T06:24:08;98062.13;;;17.18;72.53
73280;BME280;61511;49.286;9.700;2022-07-12T06:26:36;98069.09;;;17.32;71.99
73280;BME280;61511;49.286;9.700;2022-07-12T06:29:04;98073.25;;;17.45;71.24
73280;BME280;61511;49.286;9.700;2022-07-12T06:31:34;98059.16;;;17.58;70.65
73280;BME280;61511;49.286;9.700;2022-07-12T06:34:03;98074.47;;;17.72;70.57
73280;BME280;61511;49.286;9.700;2022-07-12T06:36:31;98071.31;;;17.88;71.42
73280;BME280;61511;49.286;9.700;2022-07-12T06:38:59;98067.84;;;18.02;69.49
73280;BME280;61511;49.286;9.700;2022-07-12T06:41:27;98076.00;;;18.14;68.92
73280;BME280;61511;49.286;9.700;2022-07-12T06:43:55;98074.53;;;18.28;68.64
73280;BME280;61511;49.286;9.700;2022-07-12T06:46:23;98071.97;;;18.39;68.16
73280;BME280;61511;49.286;9.700;2022-07-12T06:48:51;98073.31;;;18.53;67.69
73280;BME280;61511;49.286;9.700;2022-07-12T06:51:21;98073.09;;;18.65;67.33
73280;BME280;61511;49.286;9.700;2022-07-12T06:53:49;98071.59;;;18.79;66.06
73280;BME280;61511;49.286;9.700;2022-07-12T06:56:17;98071.53;;;18.88;65.69
73280;BME280;61511;49.286;9.700;2022-07-12T06:58:45;98066.56;;;19.07;66.06
73280;BME280;61511;49.286;9.700;2022-07-12T07:01:13;98067.25;;;19.31;64.73
73280;BME280;61511;49.286;9.700;2022-07-12T07:03:41;98071.00;;;19.51;63.38
73280;BME280;61511;49.286;9.700;2022-07-12T07:06:09;98075.03;;;19.65;63.03
73280;BME280;61511;49.286;9.700;2022-07-12T07:08:39;98072.91;;;19.89;62.96
73280;BME280;61511;49.286;9.700;2022-07-12T07:11:07;98083.59;;;20.05;61.54
73280;BME280;61511;49.286;9.700;2022-07-12T07:13:35;98085.44;;;20.23;62.05
73280;BME280;61511;49.286;9.700;2022-07-12T07:16:11;98093.88;;;20.43;60.67
73280;BME280;61511;49.286;9.700;2022-07-12T07:18:40;98099.66;;;20.54;59.37
73280;BME280;61511;49.286;9.700;2022-07-12T07:21:08;98102.97;;;20.73;60.11
73280;BME280;61511;49.286;9.700;2022-07-12T07:23:36;98102.72;;;20.91;58.88
73280;BME280;61511;49.286;9.700;2022-07-12T07:26:05;98111.13;;;21.31;58.28
73280;BME280;61511;49.286;9.700;2022-07-12T07:28:33;98113.72;;;21.60;55.26
73280;BME280;61511;49.286;9.700;2022-07-12T07:31:22;98118.63;;;21.65;56.05
73280;BME280;61511;49.286;9.700;2022-07-12T07:33:49;98102.09;;;21.73;54.77
73280;BME280;61511;49.286;9.700;2022-07-12T07:36:17;98103.66;;;21.74;55.41
73280;BME280;61511;49.286;9.700;2022-07-12T07:38:45;98112.63;;;22.04;54.79
73280;BME280;61511;49.286;9.700;2022-07-12T07:41:15;98109.66;;;22.55;53.73
73280;BME280;61511;49.286;9.700;2022-07-12T07:43:43;98114.91;;;22.31;53.67
73280;BME280;61511;49.286;9.700;2022-07-12T07:46:11;98115.38;;;23.14;51.90
73280;BME280;61511;49.286;9.700;2022-07-12T07:48:39;98112.59;;;22.72;52.21
73280;BME280;61511;49.286;9.700;2022-07-12T07:51:07;98115.44;;;23.31;51.83
73280;BME280;61511;49.286;9.700;2022-07-12T07:53:35;98114.38;;;22.69;51.60
73280;BME280;61511;49.286;9.700;2022-07-12T07:56:03;98112.69;;;22.83;50.98
73280;BME280;61511;49.286;9.700;2022-07-12T07:58:32;98111.97;;;23.63;49.96
73280;BME280;61511;49.286;9.700;2022-07-12T08:01:00;98099.97;;;24.18;47.91
73280;BME280;61511;49.286;9.700;2022-07-12T08:03:28;98111.16;;;24.90;46.98
73280;BME280;61511;49.286;9.700;2022-07-12T08:05:55;98106.34;;;24.52;46.21
73280;BME280;61511;49.286;9.700;2022-07-12T08:08:27;98113.56;;;24.31;47.95
73280;BME280;61511;49.286;9.700;2022-07-12T08:11:16;98101.78;;;25.23;46.60
73280;BME280;61511;49.286;9.700;2022-07-12T08:13:47;98104.44;;;25.97;44.37
73280;BME280;61511;49.286;9.700;2022-07-12T08:16:16;98113.59;;;25.79;42.75
73280;BME280;61511;49.286;9.700;2022-07-12T08:18:46;98105.72;;;25.96;42.92
73280;BME280;61511;49.286;9.700;2022-07-12T08:21:18;98107.97;;;26.09;43.06
73280;BME280;61511;49.286;9.700;2022-07-12T08:23:47;98104.34;;;25.27;44.13
73280;BME280;61511;49.286;9.700;2022-07-12T08:26:16;98099.41;;;24.64;45.20
73280;BME280;61511;49.286;9.700;2022-07-12T08:28:46;98107.66;;;24.07;45.90
73280;BME280;61511;49.286;9.700;2022-07-12T08:31:18;98106.34;;;23.75;47.62
73280;BME280;61511;49.286;9.700;2022-07-12T08:33:47;98103.53;;;23.91;46.47
73280;BME280;61511;49.286;9.700;2022-07-12T08:36:17;98115.06;;;24.04;46.69
73280;BME280;61511;49.286;9.700;2022-07-12T08:38:45;98109.47;;;24.15;46.44
73280;BME280;61511;49.286;9.700;2022-07-12T08:41:14;98115.13;;;24.15;45.63
73280;BME280;61511;49.286;9.700;2022-07-12T08:43:47;98115.88;;;24.38;45.76
73280;BME280;61511;49.286;9.700;2022-07-12T08:46:15;98112.53;;;24.28;46.36
73280;BME280;61511;49.286;9.700;2022-07-12T08:48:44;98114.09;;;24.24;45.11
73280;BME280;61511;49.286;9.700;2022-07-12T08:51:18;98125.59;;;25.50;43.00
73280;BME280;61511;49.286;9.700;2022-07-12T08:53:48;98120.06;;;26.39;40.42
73280;BME280;61511;49.286;9.700;2022-07-12T08:56:34;98122.25;;;27.67;38.26
73280;BME280;61511;49.286;9.700;2022-07-12T08:59:11;98133.19;;;27.95;35.55
73280;BME280;61511;49.286;9.700;2022-07-12T09:01:41;98123.72;;;30.49;31.64
73280;BME280;61511;49.286;9.700;2022-07-12T09:04:11;98125.47;;;32.91;27.07
73280;BME280;61511;49.286;9.700;2022-07-12T09:06:40;98124.03;;;34.99;24.84
73280;BME280;61511;49.286;9.700;2022-07-12T09:09:09;98120.41;;;35.49;23.03
73280;BME280;61511;49.286;9.700;2022-07-12T09:11:38;98118.75;;;33.81;25.30
73280;BME280;61511;49.286;9.700;2022-07-12T09:14:07;98123.53;;;31.31;29.51
73280;BME280;61511;49.286;9.700;2022-07-12T09:16:38;98126.78;;;35.65;24.12
73280;BME280;61511;49.286;9.700;2022-07-12T09:19:15;98115.13;;;34.13;25.16
73280;BME280;61511;49.286;9.700;2022-07-12T09:21:49;98123.50;;;34.43;25.20
73280;BME280;61511;49.286;9.700;2022-07-12T09:24:17;98124.38;;;33.96;25.19
73280;BME280;61511;49.286;9.700;2022-07-12T09:26:46;98115.88;;;36.07;22.30
73280;BME280;61511;49.286;9.700;2022-07-12T09:29:15;98116.91;;;39.09;19.61
73280;BME280;61511;49.286;9.700;2022-07-12T09:31:50;98119.53;;;39.47;18.71
73280;BME280;61511;49.286;9.700;2022-07-12T09:34:39;98122.28;;;33.57;24.60
73280;BME280;61511;49.286;9.700;2022-07-12T09:37:24;98118.53;;;30.40;29.24
73280;BME280;61511;49.286;9.700;2022-07-12T09:39:54;98125.28;;;28.38;33.00
73280;BME280;61511;49.286;9.700;2022-07-12T09:42:26;98132.72;;;27.91;34.37
73280;BME280;61511;49.286;9.700;2022-07-12T09:44:55;98121.44;;;31.60;28.16
73280;BME280;61511;49.286;9.700;2022-07-12T09:47:29;98121.41;;;34.44;24.82
73280;BME280;61511;49.286;9.700;2022-07-12T09:49:58;98132.06;;;30.47;29.15
73280;BME280;61511;49.286;9.700;2022-07-12T09:52:27;98138.50;;;28.36;33.16
73280;BME280;61511;49.286;9.700;2022-07-12T09:54:55;98136.75;;;27.21;34.83
73280;BME280;61511;49.286;9.700;2022-07-12T09:57:30;98128.72;;;28.18;34.22
73280;BME280;61511;49.286;9.700;2022-07-12T09:59:59;98120.34;;;30.78;29.18
73280;BME280;61511;49.286;9.700;2022-07-12T10:02:29;98128.09;;;32.21;27.47
73280;BME280;61511;49.286;9.700;2022-07-12T10:04:59;98132.06;;;32.03;26.66
73280;BME280;61511;49.286;9.700;2022-07-12T10:07:30;98129.75;;;37.01;20.68
73280;BME280;61511;49.286;9.700;2022-07-12T10:09:59;98130.41;;;36.36;19.74
73280;BME280;61511;49.286;9.700;2022-07-12T10:12:28;98124.91;;;35.60;20.37
73280;BME280;61511;49.286;9.700;2022-07-12T10:15:05;98127.28;;;31.98;25.86
73280;BME280;61511;49.286;9.700;2022-07-12T10:17:38;98122.09;;;34.59;23.71
73280;BME280;61511;49.286;9.700;2022-07-12T10:20:15;98116.84;;;40.49;17.28
73280;BME280;61511;49.286;9.700;2022-07-12T10:22:44;98114.22;;;44.03;14.10
73280;BME280;61511;49.286;9.700;2022-07-12T10:25:28;98110.41;;;46.09;11.36
73280;BME280;61511;49.286;9.700;2022-07-12T10:27:57;98111.53;;;46.75;12.21
73280;BME280;61511;49.286;9.700;2022-07-12T10:30:26;98110.84;;;47.78;11.40
73280;BME280;61511;49.286;9.700;2022-07-12T10:32:57;98107.34;;;48.27;10.80
73280;BME280;61511;49.286;9.700;2022-07-12T10:35:28;98100.56;;;48.46;10.08
73280;BME280;61511;49.286;9.700;2022-07-12T10:38:17;98084.94;;;48.62;10.16
73280;BME280;61511;49.286;9.700;2022-07-12T10:40:47;98095.66;;;47.84;10.04
73280;BME280;61511;49.286;9.700;2022-07-12T10:43:20;98090.63;;;48.56;9.75
73280;BME280;61511;49.286;9.700;2022-07-12T10:45:50;98088.38;;;47.85;10.12
73280;BME280;61511;49.286;9.700;2022-07-12T10:48:26;98083.09;;;48.49;10.00
73280;BME280;61511;49.286;9.700;2022-07-12T10:50:55;98087.00;;;48.83;9.86
73280;BME280;61511;49.286;9.700;2022-07-12T10:53:27;98088.13;;;48.95;9.05
73280;BME280;61511;49.286;9.700;2022-07-12T10:56:23;98072.25;;;47.84;9.62
73280;BME280;61511;49.286;9.700;2022-07-12T10:58:59;98084.13;;;47.68;10.40
73280;BME280;61511;49.286;9.700;2022-07-12T11:01:30;98088.03;;;44.03;12.66
73280;BME280;61511;49.286;9.700;2022-07-12T11:04:06;98080.38;;;44.25;12.63
73280;BME280;61511;49.286;9.700;2022-07-12T11:06:37;98088.03;;;45.98;11.48
73280;BME280;61511;49.286;9.700;2022-07-12T11:09:07;98093.91;;;47.53;10.17
73280;BME280;61511;49.286;9.700;2022-07-12T11:11:40;98088.97;;;48.03;9.32
73280;BME280;61511;49.286;9.700;2022-07-12T11:14:11;98097.78;;;47.60;10.04
73280;BME280;61511;49.286;9.700;2022-07-12T11:16:43;98093.50;;;48.30;10.41
73280;BME280;61511;49.286;9.700;2022-07-12T11:19:13;98095.00;;;48.09;10.12
73280;BME280;61511;49.286;9.700;2022-07-12T11:21:43;98096.81;;;47.12;10.70
73280;BME280;61511;49.286;9.700;2022-07-12T11:24:16;98087.69;;;44.10;12.37
73280;BME280;61511;49.286;9.700;2022-07-12T11:26:44;98091.22;;;42.66;14.02
73280;BME280;61511;49.286;9.700;2022-07-12T11:29:12;98090.09;;;41.09;14.19
73280;BME280;61511;49.286;9.700;2022-07-12T11:31:41;98079.81;;;40.94;15.82
73280;BME280;61511;49.286;9.700;2022-07-12T11:34:20;98082.53;;;41.15;16.04
73280;BME280;61511;49.286;9.700;2022-07-12T11:36:51;98078.41;;;40.37;15.95
73280;BME280;61511;49.286;9.700;2022-07-12T11:39:31;98078.38;;;39.37;16.04
73280;BME280;61511;49.286;9.700;2022-07-12T11:42:00;98078.69;;;39.20;16.91
73280;BME280;61511;49.286;9.700;2022-07-12T11:44:42;98064.09;;;39.51;15.53
73280;BME280;61511;49.286;9.700;2022-07-12T11:47:14;98072.31;;;39.87;16.18
73280;BME280;61511;49.286;9.700;2022-07-12T11:49:44;98070.69;;;38.88;17.14
73280;BME280;61511;49.286;9.700;2022-07-12T11:52:13;98067.91;;;37.78;17.97
73280;BME280;61511;49.286;9.700;2022-07-12T11:54:41;98074.91;;;37.56;17.27
73280;BME280;61511;49.286;9.700;2022-07-12T11:57:11;98060.97;;;37.33;17.65
73280;BME280;61511;49.286;9.700;2022-07-12T11:59:40;98065.84;;;38.19;17.45
73280;BME280;61511;49.286;9.700;2022-07-12T12:02:11;98059.44;;;40.23;15.42
73280;BME280;61511;49.286;9.700;2022-07-12T12:04:46;98052.41;;;39.81;15.00
73280;BME280;61511;49.286;9.700;2022-07-12T12:07:16;98058.72;;;39.89;14.63
73280;BME280;61511;49.286;9.700;2022-07-12T12:09:58;98048.00;;;38.63;17.15
73280;BME280;61511;49.286;9.700;2022-07-12T12:12:28;98045.09;;;38.94;17.66
73280;BME280;61511;49.286;9.700;2022-07-12T12:15:04;98057.75;;;38.89;17.40
73280;BME280;61511;49.286;9.700;2022-07-12T12:17:35;98057.63;;;37.27;18.18
73280;BME280;61511;49.286;9.700;2022-07-12T12:20:13;98048.53;;;35.57;20.18
73280;BME280;61511;49.286;9.700;2022-07-12T12:22:43;98033.94;;;35.28;20.62
73280;BME280;61511;49.286;9.700;2022-07-12T12:25:11;98035.97;;;35.01;21.11
73280;BME280;61511;49.286;9.700;2022-07-12T12:27:42;98030.56;;;34.46;23.32
73280;BME280;61511;49.286;9.700;2022-07-12T12:30:32;98021.00;;;34.27;22.50
73280;BME280;61511;49.286;9.700;2022-07-12T12:33:01;98018.47;;;33.81;22.43
73280;BME280;61511;49.286;9.700;2022-07-12T12:35:33;98015.91;;;33.21;22.92
73280;BME280;61511;49.286;9.700;2022-07-12T12:38:02;98017.75;;;32.71;25.76
73280;BME280;61511;49.286;9.700;2022-07-12T12:40:32;98012.41;;;31.84;24.87
73280;BME280;61511;49.286;9.700;2022-07-12T12:43:05;98003.19;;;29.58;28.09
73280;BME280;61511;49.286;9.700;2022-07-12T12:45:34;98013.84;;;30.68;27.26
73280;BME280;61511;49.286;9.700;2022-07-12T12:48:04;98023.41;;;31.07;27.39
73280;BME280;61511;49.286;9.700;2022-07-12T12:50:38;98007.53;;;31.41;25.91
73280;BME280;61511;49.286;9.700;2022-07-12T12:53:08;98004.94;;;31.51;25.90
73280;BME280;61511;49.286;9.700;2022-07-12T12:55:36;98007.91;;;31.30;25.28
73280;BME280;61511;49.286;9.700;2022-07-12T12:58:07;98010.06;;;31.52;26.19
73280;BME280;61511;49.286;9.700;2022-07-12T13:00:37;98008.41;;;31.72;25.69
73280;BME280;61511;49.286;9.700;2022-07-12T13:03:07;98004.63;;;32.00;24.02
73280;BME280;61511;49.286;9.700;2022-07-12T13:05:36;98009.94;;;31.96;24.32
73280;BME280;61511;49.286;9.700;2022-07-12T13:08:07;98015.44;;;31.64;25.89
73280;BME280;61511;49.286;9.700;2022-07-12T13:10:36;98013.41;;;31.36;26.01
73280;BME280;61511;49.286;9.700;2022-07-12T13:13:06;98016.66;;;31.32;26.76